Latest Weather Observations for Norah Head

IDN60801

Issued at 10:05 am EST Wednesday 24 September 2014 (issued every 30 minutes, with the page automatically refreshed every 10 minutes)

About weather observations | Map of weather stations | Latest weather observations for NSW | Other Formats
Station Details ID: 061366 Name: NORAH HEAD AWS Lat: -33.28 Lon: 151.58 Height: 18.8 m
Data from the previous 72 hours. | See also: Recent months at Norah Head
Date/Time
EST
Temp
°C
App
Temp
°C
Dew
Point
Rel
Hum
%
Delta-T
°C
Wind Press
QNH
hPa
Press
MSL
hPa
Rain
since 9 am
mm
Dir
 
Spd
km/h
Gust
km/h
Spd
kts
Gust
kts
24/10:00am 19.5 18.1 13.4 68 3.5 NE 13 15 7 8 1022.3 1022.2 0.0
24/09:30am 20.4 20.8 15.2 72 3.1 NE 7 9 4 5 1022.6 1022.5 0.0
24/09:00am 18.1 17.7 13.0 72 2.9 NNE 7 9 4 5 1022.9 1022.8 0.0
24/08:30am 17.5 17.0 12.6 73 2.7 N 7 9 4 5 1023.1 1023.0 0.0
24/08:00am 16.9 16.1 13.0 78 2.2 N 9 13 5 7 1023.3 1023.2 0.0
24/07:30am 16.6 16.4 13.1 80 2.0 N 6 9 3 5 1023.4 1023.3 0.0
24/07:00am 15.4 15.5 11.6 78 2.0 NW 2 4 1 2 1023.4 1023.3 0.0
24/06:30am 14.2 13.5 11.4 83 1.5 WNW 6 9 3 5 1023.3 1023.2 0.0
24/06:00am 13.4 12.6 11.1 86 1.2 WNW 6 11 3 6 1023.2 1023.1 0.0
24/05:30am 13.1 12.4 11.3 89 1.0 WNW 6 11 3 6 1023.2 1023.1 0.0
24/05:00am 13.5 12.7 11.7 89 1.0 WNW 7 11 4 6 1023.0 1022.9 0.0
24/04:30am 13.5 12.3 11.7 89 1.0 WNW 9 9 5 5 1022.8 1022.7 0.0
24/04:00am 13.7 13.0 11.9 89 1.0 WNW 7 11 4 6 1022.9 1022.8 0.0
24/03:30am 13.6 12.8 11.7 88 1.0 WNW 7 11 4 6 1023.1 1023.0 0.0
24/03:00am 13.8 12.9 11.5 86 1.2 NW 7 11 4 6 1023.3 1023.2 0.0
24/02:30am 14.5 13.5 12.4 87 1.1 NNW 9 11 5 6 1023.5 1023.4 0.0
24/02:00am 14.8 13.4 12.3 85 1.4 N 11 15 6 8 1023.8 1023.7 0.0
24/01:30am 15.2 14.0 12.9 86 1.3 N 11 13 6 7 1024.2 1024.1 0.0
24/01:00am 15.2 13.6 12.7 85 1.4 N 13 13 7 7 1024.5 1024.4 0.0
24/12:30am 15.4 13.4 12.7 84 1.5 N 15 17 8 9 1024.9 1024.8 0.0
24/12:00am 15.8 14.3 13.1 84 1.5 N 13 17 7 9 1025.2 1025.1 0.0
 
Date/Time
EST
Temp
°C
App
Temp
°C
Dew
Point
Rel
Hum
%
Delta-T
°C
Wind Press
QNH
hPa
Press
MSL
hPa
Rain
since 9 am
mm
Dir
 
Spd
km/h
Gust
km/h
Spd
kts
Gust
kts
23/11:30pm 16.2 14.1 13.5 84 1.5 N 17 20 9 11 1025.6 1025.6 0.0
23/11:00pm 16.7 14.3 13.8 83 1.6 N 19 24 10 13 1025.6 1025.6 0.0
23/10:30pm 17.4 13.0 14.1 81 1.9 N 30 33 16 18 1025.7 1025.7 0.0
23/10:00pm 17.3 13.2 13.8 80 2.0 NNE 28 32 15 17 1025.9 1025.9 0.0
23/09:30pm 17.6 14.2 14.7 83 1.7 NNE 26 30 14 16 1026.0 1026.0 0.0
23/09:00pm 17.5 13.7 14.6 83 1.7 NNE 28 32 15 17 1026.2 1026.2 0.0
23/08:30pm 17.5 13.7 14.6 83 1.7 NNE 28 32 15 17 1026.3 1026.3 0.0
23/08:00pm 17.6 13.3 14.5 82 1.8 NNE 30 33 16 18 1026.4 1026.4 0.0
23/07:30pm 17.5 13.1 14.2 81 1.9 NNE 30 33 16 18 1026.4 1026.4 0.0
23/07:00pm 17.3 12.8 13.8 80 2.0 NE 30 33 16 18 1026.2 1026.2 0.0
23/06:30pm 17.5 13.0 13.8 79 2.1 NE 30 35 16 19 1026.0 1026.0 0.0
23/06:00pm 17.4 12.9 13.7 79 2.1 NE 30 35 16 19 1025.9 1025.9 0.0
23/05:30pm 17.5 13.3 13.6 78 2.2 NE 28 32 15 17 1025.9 1025.9 0.0
23/05:00pm 17.7 13.9 13.6 77 2.3 NE 26 32 14 17 1025.7 1025.7 0.0
23/04:30pm 18.2 14.4 13.5 74 2.7 NE 26 30 14 16 1026.0 1026.0 0.0
23/04:00pm 18.5 14.9 12.9 70 3.1 NE 24 28 13 15 1026.2 1026.2 0.0
23/03:30pm 18.9 15.2 12.6 67 3.5 NE 24 28 13 15 1026.4 1026.4 0.0
23/03:00pm 19.5 16.2 12.8 65 3.8 ENE 22 28 12 15 1026.6 1026.6 0.0
23/02:30pm 19.2 16.1 13.4 69 3.3 ENE 22 28 12 15 1026.6 1026.6 0.0
23/02:00pm 18.8 15.0 12.3 66 3.6 ENE 24 26 13 14 1026.8 1026.8 0.0
23/01:30pm 19.0 15.4 12.0 64 3.9 ENE 22 26 12 14 1027.2 1027.2 0.0
23/01:00pm 19.2 16.5 11.7 62 4.1 ENE 17 22 9 12 1027.5 1027.5 0.0
23/12:30pm 19.2 17.6 11.5 61 4.2 ENE 11 17 6 9 1027.9 1027.9 0.0
23/12:00pm 20.3 19.6 13.3 64 4.0 ENE 9 15 5 8 1028.4 1028.4 0.0
23/11:30am 21.0 19.9 13.2 61 4.5 NE 11 13 6 7 1028.8 1028.8 0.0
23/11:00am 20.8 20.0 12.8 60 4.5 NNE 9 13 5 7 1029.0 1029.0 0.0
23/10:30am 19.8 19.3 12.6 63 4.0 NE 7 9 4 5 1029.4 1029.4 0.0
23/10:00am 17.8 17.3 10.7 63 3.8 ENE 4 6 2 3 1029.8 1029.8 0.0
23/09:30am 17.8 17.2 10.4 62 4.0 ENE 4 6 2 3 1029.9 1029.9 0.0
23/09:00am 17.9 16.9 10.3 61 4.0 N 6 7 3 4 1030.2 1030.2 0.0
23/08:30am 17.2 16.5 10.1 63 3.8 N 4 6 2 3 1030.3 1030.3 0.0
23/08:00am 16.7 16.7 9.9 64 3.5 CALM 0 0 0 0 1030.2 1030.2 0.0
23/07:30am 16.1 16.2 10.2 68 3.1 CALM 0 0 0 0 1030.1 1030.1 0.0
23/07:00am 15.0 14.2 9.6 70 2.8 WNW 4 7 2 4 1030.0 1030.0 0.0
23/06:30am 14.0 12.6 9.0 72 2.5 WNW 6 7 3 4 1029.9 1029.9 0.0
23/06:00am 12.9 11.3 8.8 76 2.0 WNW 7 11 4 6 1029.7 1029.7 0.0
23/05:30am 12.7 11.3 9.0 78 1.9 WNW 6 9 3 5 1029.6 1029.6 0.0
23/05:00am 12.7 11.3 9.0 78 1.8 WNW 6 9 3 5 1029.4 1029.4 0.0
23/04:30am 13.2 11.6 8.7 74 2.3 WNW 7 9 4 5 1029.1 1029.1 0.0
23/04:00am 13.6 11.7 9.1 74 2.3 WNW 9 13 5 7 1029.0 1029.0 0.0
23/03:30am 13.5 11.6 9.2 75 2.2 WNW 9 13 5 7 1029.0 1029.0 0.0
23/03:00am 13.6 11.8 9.5 76 2.1 WNW 9 13 5 7 1029.0 1029.0 0.0
23/02:30am 13.8 12.0 9.6 76 2.2 WNW 9 13 5 7 1029.0 1029.0 0.0
23/02:00am 13.9 12.2 9.7 76 2.1 WNW 9 13 5 7 1029.2 1029.2 0.0
23/01:30am 14.3 12.6 9.9 75 2.3 WNW 9 13 5 7 1029.4 1029.4 0.0
23/01:00am 14.0 12.3 10.0 77 2.1 WNW 9 11 5 6 1029.7 1029.7 0.0
23/12:30am 14.3 12.8 10.5 78 2.0 WNW 9 13 5 7 1029.7 1029.7 0.0
23/12:00am 13.9 12.8 10.7 81 1.7 WNW 7 11 4 6 1029.7 1029.7 0.0
 
Date/Time
EST
Temp
°C
App
Temp
°C
Dew
Point
Rel
Hum
%
Delta-T
°C
Wind Press
QNH
hPa
Press
MSL
hPa
Rain
since 9 am
mm
Dir
 
Spd
km/h
Gust
km/h
Spd
kts
Gust
kts
22/11:30pm 13.9 12.9 10.9 82 1.6 WNW 7 9 4 5 1029.8 1029.8 0.0
22/11:00pm 14.2 13.3 11.2 82 1.6 WNW 7 11 4 6 1029.8 1029.8 0.0
22/10:30pm 14.8 13.4 10.8 77 2.1 NW 9 11 5 6 1030.0 1030.0 0.0
22/10:00pm 15.7 12.9 11.3 75 2.3 NNE 17 20 9 11 1030.0 1030.0 0.0
22/09:30pm 15.6 13.1 11.2 75 2.4 NE 15 19 8 10 1030.2 1030.2 0.0
22/09:00pm 15.6 13.5 11.2 75 2.3 NE 13 17 7 9 1030.1 1030.1 0.0
22/08:30pm 15.5 13.3 10.7 73 2.5 NE 13 15 7 8 1030.1 1030.1 0.0
22/08:00pm 15.7 13.2 10.9 73 2.5 NE 15 19 8 10 1030.1 1030.1 0.0
22/07:30pm 15.8 13.3 11.2 74 2.5 NE 15 19 8 10 1029.8 1029.8 0.0
22/07:00pm 16.2 13.3 10.9 71 2.8 ENE 17 20 9 11 1029.8 1029.8 0.0
22/06:30pm 16.8 14.0 11.3 70 3.0 ENE 17 19 9 10 1029.6 1029.6 0.0
22/06:00pm 16.6 14.1 10.9 69 3.0 ENE 15 19 8 10 1029.4 1029.4 0.0
22/05:30pm 16.8 14.4 11.3 70 3.0 E 15 19 8 10 1029.3 1029.3 0.0
22/05:00pm 16.9 14.1 11.2 69 3.1 ESE 17 20 9 11 1029.0 1029.0 0.0
22/04:30pm 17.3 13.8 10.9 66 3.4 ESE 20 22 11 12 1028.8 1028.8 0.0
22/04:00pm 17.8 15.2 10.7 63 3.8 ESE 15 20 8 11 1028.8 1028.8 0.0
22/03:30pm 18.0 14.8 10.1 60 4.2 ESE 17 20 9 11 1028.7 1028.7 0.0
22/03:00pm 18.3 14.8 10.2 59 4.3 ESE 19 22 10 12 1028.8 1028.8 0.0
22/02:30pm 18.7 16.0 10.3 58 4.5 ESE 15 19 8 10 1028.9 1028.9 0.0
22/02:00pm 19.0 16.6 10.0 56 4.8 SE 13 17 7 9 1029.3 1029.3 0.0
22/01:30pm 19.4 17.1 10.4 56 4.9 SE 13 17 7 9 1029.6 1029.6 0.0
22/01:00pm 19.8 17.1 10.5 55 5.0 SSE 15 19 8 10 1030.0 1030.0 0.0
22/12:30pm 20.2 18.4 10.9 55 5.1 SSE 11 15 6 8 1030.3 1030.3 0.0
22/12:00pm 19.9 17.7 10.9 56 4.9 SSE 13 15 7 8 1030.8 1030.8 0.0
22/11:30am 20.3 17.5 11.5 57 4.9 SSE 17 19 9 10 1031.2 1031.2 0.0
22/11:00am 19.3 16.8 11.1 59 4.4 S 15 19 8 10 1031.6 1031.6 0.0
22/10:30am 19.4 17.6 10.9 58 4.6 S 11 17 6 9 1032.0 1032.0 0.0
22/10:00am 19.3 17.6 11.1 59 4.4 S 11 15 6 8 1032.0 1032.0 0.0
22/09:30am 19.3 18.2 12.1 63 4.0 SSE 9 15 5 8 1032.0 1032.0 0.0
22/09:00am 17.4 17.0 12.5 73 2.7 SSW 6 9 3 5 1032.0 1032.0 1.8
22/08:30am 16.6 15.8 11.1 70 3.0 SSW 6 11 3 6 1032.0 1032.0 1.8
22/08:00am 16.2 15.1 12.0 76 2.3 SSW 9 13 5 7 1031.7 1031.7 1.8
22/07:30am 15.3 14.5 11.7 79 1.9 SSW 7 15 4 8 1031.4 1031.4 1.8
22/07:00am 14.3 13.1 11.5 83 1.5 WSW 9 13 5 7 1031.2 1031.2 1.8
22/06:30am 13.3 11.6 11.2 87 1.1 WSW 11 15 6 8 1030.9 1030.9 1.8
22/06:00am 12.6 10.4 10.8 89 0.9 W 13 15 7 8 1030.5 1030.5 1.8
22/05:30am 12.5 10.7 10.7 89 0.9 W 11 15 6 8 1030.0 1030.0 1.8
22/05:00am 12.6 10.8 10.8 89 0.9 WSW 11 15 6 8 1029.7 1029.7 1.8
22/04:30am 13.0 11.2 10.9 87 1.1 WSW 11 13 6 7 1029.3 1029.3 1.8
22/04:00am 13.7 12.3 10.9 83 1.5 SW 9 13 5 7 1029.1 1029.1 1.8
22/03:30am 13.0 11.1 10.5 85 1.3 WSW 11 13 6 7 1029.1 1029.1 1.8
22/03:00am 13.5 12.0 10.7 83 1.5 WSW 9 11 5 6 1029.2 1029.2 1.8
22/02:30am 13.3 11.7 10.3 82 1.6 W 9 11 5 6 1029.3 1029.3 1.8
22/02:00am 13.3 11.8 10.7 84 1.3 WSW 9 13 5 7 1029.4 1029.4 1.8
22/01:30am 13.8 13.3 10.6 81 1.7 SW 4 6 2 3 1029.5 1029.5 1.8
22/01:00am 13.7 12.8 10.7 82 1.6 SW 6 9 3 5 1029.8 1029.8 1.8
22/12:30am 14.4 14.6 10.6 78 2.0 CALM 0 2 0 1 1030.0 1030.0 1.8
22/12:00am 15.4 14.3 10.8 74 2.4 SSE 7 11 4 6 1030.0 1030.0 1.8
 
Date/Time
EST
Temp
°C
App
Temp
°C
Dew
Point
Rel
Hum
%
Delta-T
°C
Wind Press
QNH
hPa
Press
MSL
hPa
Rain
since 9 am
mm
Dir
 
Spd
km/h
Gust
km/h
Spd
kts
Gust
kts
21/11:30pm 15.2 13.7 10.4 73 2.5 SE 9 13 5 7 1030.2 1030.2 1.8
21/11:00pm 15.4 13.6 10.8 74 2.4 SE 11 13 6 7 1030.1 1030.1 1.8
21/10:30pm 15.8 14.0 11.0 73 2.6 SE 11 15 6 8 1030.3 1030.3 1.8
21/10:00pm 16.1 15.2 11.3 73 2.6 ESE 7 13 4 7 1030.6 1030.6 1.8
21/09:30pm 16.3 14.9 10.8 70 2.9 E 9 11 5 6 1030.5 1030.5 1.8
21/09:00pm 16.1 14.0 11.1 72 2.7 ESE 13 15 7 8 1030.4 1030.4 1.8
21/08:30pm 16.4 14.0 11.3 72 2.7 E 15 19 8 10 1030.2 1030.2 1.8
21/08:00pm 16.4 13.9 11.1 71 2.8 E 15 19 8 10 1030.1 1030.1 1.8
21/07:30pm 16.3 13.8 11.2 72 2.7 ESE 15 19 8 10 1029.7 1029.7 1.8
21/07:00pm 16.4 13.6 11.3 72 2.7 ESE 17 20 9 11 1029.4 1029.4 1.8
21/06:30pm 16.3 13.9 11.5 73 2.6 ESE 15 19 8 10 1028.9 1028.9 1.8
21/06:00pm 16.2 13.3 10.9 71 2.8 ESE 17 20 9 11 1028.2 1028.2 1.8
21/05:30pm 16.1 13.1 10.6 70 2.9 SE 17 20 9 11 1028.0 1028.0 1.8
21/05:00pm 16.2 12.7 10.9 71 2.8 SE 20 26 11 14 1027.3 1027.3 1.8
21/04:30pm 16.6 13.4 11.1 70 3.0 SSE 19 22 10 12 1027.1 1027.1 1.8
21/04:00pm 17.2 14.4 11.2 68 3.2 SSE 17 20 9 11 1027.1 1027.1 1.8
21/03:30pm 17.5 16.0 11.8 69 3.1 SE 11 15 6 8 1027.4 1027.4 1.8
21/03:00pm 18.2 16.5 12.4 69 3.2 SSE 13 17 7 9 1027.4 1027.4 1.8
21/02:30pm 18.3 16.6 12.3 68 3.3 SSE 13 17 7 9 1027.7 1027.7 1.8
21/02:00pm 18.1 16.4 12.5 70 3.1 SE 13 17 7 9 1028.1 1028.1 1.8
21/01:30pm 17.8 14.2 12.9 73 2.7 S 24 30 13 16 1028.3 1028.3 1.8
21/01:00pm 17.3 13.9 12.6 74 2.6 S 22 30 12 16 1028.7 1028.7 1.8
21/12:30pm 16.7 13.7 12.5 76 2.3 S 20 26 11 14 1029.3 1029.3 1.8
21/12:00pm 17.3 14.2 13.4 78 2.2 S 22 28 12 15 1029.6 1029.6 1.6
21/11:30am 15.8 12.4 12.5 81 1.8 S 22 28 12 15 1029.9 1029.9 1.6
21/11:00am 15.2 13.8 13.4 89 1.0 SSE 13 24 7 13 1030.4 1030.4 1.6
21/10:30am 14.6 13.7 12.6 88 1.1 ESE 9 11 5 6 1030.5 1030.5 1.6

Other Formats:

Comma delimited format used in spreadsheet applications
http://www.bom.gov.au/fwo/IDN60801/IDN60801.95770.axf

JavaScript Object Notation format (JSON) in row-major order
http://www.bom.gov.au/fwo/IDN60801/IDN60801.95770.json